sensor_id;sensor_type;location;lat;lon;timestamp;P1;durP1;ratioP1;P2;durP2;ratioP2
18649;SDS011;9454;53.516;10.478;2023-05-10T00:02:17;5.70;;;2.10;;
18649;SDS011;9454;53.516;10.478;2023-05-10T00:05:21;3.25;;;1.85;;
18649;SDS011;9454;53.516;10.478;2023-05-10T00:08:25;3.88;;;2.30;;
18649;SDS011;9454;53.516;10.478;2023-05-10T00:11:28;6.05;;;2.05;;
18649;SDS011;9454;53.516;10.478;2023-05-10T00:14:36;4.35;;;2.17;;
18649;SDS011;9454;53.516;10.478;2023-05-10T00:17:40;3.35;;;1.90;;
18649;SDS011;9454;53.516;10.478;2023-05-10T00:20:46;4.63;;;2.25;;
18649;SDS011;9454;53.516;10.478;2023-05-10T00:23:50;3.13;;;1.67;;
18649;SDS011;9454;53.516;10.478;2023-05-10T00:26:53;3.67;;;1.80;;
18649;SDS011;9454;53.516;10.478;2023-05-10T00:29:58;3.25;;;2.20;;
18649;SDS011;9454;53.516;10.478;2023-05-10T00:33:03;4.85;;;2.20;;
18649;SDS011;9454;53.516;10.478;2023-05-10T00:36:07;3.47;;;1.80;;
18649;SDS011;9454;53.516;10.478;2023-05-10T00:39:10;4.25;;;1.67;;
18649;SDS011;9454;53.516;10.478;2023-05-10T00:42:18;4.70;;;2.05;;
18649;SDS011;9454;53.516;10.478;2023-05-10T00:45:23;3.28;;;1.98;;
18649;SDS011;9454;53.516;10.478;2023-05-10T00:48:28;4.80;;;2.30;;
18649;SDS011;9454;53.516;10.478;2023-05-10T00:51:33;5.38;;;1.98;;
18649;SDS011;9454;53.516;10.478;2023-05-10T00:54:40;4.00;;;1.80;;
18649;SDS011;9454;53.516;10.478;2023-05-10T00:57:48;3.20;;;2.30;;
18649;SDS011;9454;53.516;10.478;2023-05-10T01:00:53;4.38;;;2.00;;
18649;SDS011;9454;53.516;10.478;2023-05-10T01:03:59;4.68;;;2.42;;
18649;SDS011;9454;53.516;10.478;2023-05-10T01:07:03;6.72;;;2.15;;
18649;SDS011;9454;53.516;10.478;2023-05-10T01:10:07;8.05;;;1.77;;
18649;SDS011;9454;53.516;10.478;2023-05-10T01:13:12;3.95;;;2.30;;
18649;SDS011;9454;53.516;10.478;2023-05-10T01:16:24;8.43;;;2.40;;
18649;SDS011;9454;53.516;10.478;2023-05-10T01:19:29;5.20;;;1.88;;
18649;SDS011;9454;53.516;10.478;2023-05-10T01:29:40;2.78;;;1.55;;
18649;SDS011;9454;53.516;10.478;2023-05-10T01:33:09;3.17;;;1.92;;
18649;SDS011;9454;53.516;10.478;2023-05-10T01:36:16;4.22;;;1.80;;
18649;SDS011;9454;53.516;10.478;2023-05-10T01:39:32;3.88;;;2.03;;
18649;SDS011;9454;53.516;10.478;2023-05-10T01:42:42;2.47;;;1.77;;
18649;SDS011;9454;53.516;10.478;2023-05-10T01:45:56;3.65;;;2.03;;
18649;SDS011;9454;53.516;10.478;2023-05-10T01:49:16;5.10;;;2.13;;
18649;SDS011;9454;53.516;10.478;2023-05-10T01:52:25;8.50;;;2.20;;
18649;SDS011;9454;53.516;10.478;2023-05-10T01:55:30;4.00;;;2.33;;
18649;SDS011;9454;53.516;10.478;2023-05-10T01:58:35;6.07;;;2.00;;
18649;SDS011;9454;53.516;10.478;2023-05-10T02:01:40;4.57;;;1.85;;
18649;SDS011;9454;53.516;10.478;2023-05-10T02:04:46;7.05;;;2.03;;
18649;SDS011;9454;53.516;10.478;2023-05-10T02:07:49;4.18;;;2.25;;
18649;SDS011;9454;53.516;10.478;2023-05-10T02:10:56;2.17;;;1.98;;
18649;SDS011;9454;53.516;10.478;2023-05-10T02:14:04;6.00;;;2.25;;
18649;SDS011;9454;53.516;10.478;2023-05-10T02:17:12;9.20;;;2.10;;
18649;SDS011;9454;53.516;10.478;2023-05-10T02:20:19;4.13;;;2.25;;
18649;SDS011;9454;53.516;10.478;2023-05-10T02:23:23;3.17;;;1.55;;
18649;SDS011;9454;53.516;10.478;2023-05-10T02:26:29;5.32;;;2.03;;
18649;SDS011;9454;53.516;10.478;2023-05-10T02:29:32;6.90;;;2.17;;
18649;SDS011;9454;53.516;10.478;2023-05-10T02:32:36;7.25;;;2.10;;
18649;SDS011;9454;53.516;10.478;2023-05-10T02:35:45;5.25;;;2.47;;
18649;SDS011;9454;53.516;10.478;2023-05-10T02:38:50;2.53;;;1.67;;
18649;SDS011;9454;53.516;10.478;2023-05-10T02:41:57;3.28;;;2.00;;
18649;SDS011;9454;53.516;10.478;2023-05-10T02:45:02;4.93;;;2.67;;
18649;SDS011;9454;53.516;10.478;2023-05-10T02:48:09;6.90;;;2.10;;
18649;SDS011;9454;53.516;10.478;2023-05-10T02:51:15;7.55;;;2.30;;
18649;SDS011;9454;53.516;10.478;2023-05-10T02:54:21;5.28;;;2.13;;
18649;SDS011;9454;53.516;10.478;2023-05-10T02:57:29;3.60;;;2.25;;
18649;SDS011;9454;53.516;10.478;2023-05-10T03:00:36;3.47;;;2.10;;
18649;SDS011;9454;53.516;10.478;2023-05-10T03:03:40;5.25;;;2.35;;
18649;SDS011;9454;53.516;10.478;2023-05-10T03:06:45;3.35;;;2.17;;
18649;SDS011;9454;53.516;10.478;2023-05-10T03:09:53;3.25;;;2.42;;
18649;SDS011;9454;53.516;10.478;2023-05-10T03:13:06;5.45;;;2.97;;
18649;SDS011;9454;53.516;10.478;2023-05-10T03:16:12;8.15;;;2.38;;
18649;SDS011;9454;53.516;10.478;2023-05-10T03:19:22;3.78;;;2.13;;
18649;SDS011;9454;53.516;10.478;2023-05-10T03:22:30;6.07;;;2.58;;
18649;SDS011;9454;53.516;10.478;2023-05-10T03:25:35;2.88;;;2.10;;
18649;SDS011;9454;53.516;10.478;2023-05-10T03:28:40;4.13;;;2.10;;
18649;SDS011;9454;53.516;10.478;2023-05-10T03:31:44;3.50;;;2.47;;
18649;SDS011;9454;53.516;10.478;2023-05-10T03:34:49;3.35;;;2.17;;
18649;SDS011;9454;53.516;10.478;2023-05-10T03:37:54;2.78;;;2.10;;
18649;SDS011;9454;53.516;10.478;2023-05-10T03:40:59;6.40;;;2.22;;
18649;SDS011;9454;53.516;10.478;2023-05-10T03:44:03;5.03;;;2.25;;
18649;SDS011;9454;53.516;10.478;2023-05-10T03:47:07;7.32;;;2.60;;
18649;SDS011;9454;53.516;10.478;2023-05-10T03:50:11;8.45;;;2.42;;
18649;SDS011;9454;53.516;10.478;2023-05-10T03:53:18;5.97;;;2.42;;
18649;SDS011;9454;53.516;10.478;2023-05-10T03:56:22;4.05;;;2.88;;
18649;SDS011;9454;53.516;10.478;2023-05-10T03:59:27;6.25;;;2.95;;
18649;SDS011;9454;53.516;10.478;2023-05-10T04:02:31;4.30;;;2.20;;
18649;SDS011;9454;53.516;10.478;2023-05-10T04:05:36;2.90;;;2.17;;
18649;SDS011;9454;53.516;10.478;2023-05-10T04:08:41;6.82;;;2.60;;
18649;SDS011;9454;53.516;10.478;2023-05-10T04:11:46;5.68;;;2.58;;
18649;SDS011;9454;53.516;10.478;2023-05-10T04:14:50;7.53;;;2.33;;
18649;SDS011;9454;53.516;10.478;2023-05-10T04:17:54;3.13;;;2.13;;
18649;SDS011;9454;53.516;10.478;2023-05-10T04:20:58;4.47;;;2.45;;
18649;SDS011;9454;53.516;10.478;2023-05-10T04:24:05;3.50;;;2.53;;
18649;SDS011;9454;53.516;10.478;2023-05-10T04:27:09;4.15;;;2.65;;
18649;SDS011;9454;53.516;10.478;2023-05-10T04:30:13;4.63;;;2.25;;
18649;SDS011;9454;53.516;10.478;2023-05-10T04:33:17;3.40;;;2.28;;
18649;SDS011;9454;53.516;10.478;2023-05-10T04:36:21;3.97;;;2.47;;
18649;SDS011;9454;53.516;10.478;2023-05-10T04:39:26;3.40;;;2.17;;
18649;SDS011;9454;53.516;10.478;2023-05-10T04:42:30;2.95;;;2.30;;
18649;SDS011;9454;53.516;10.478;2023-05-10T04:45:36;6.57;;;2.45;;
18649;SDS011;9454;53.516;10.478;2023-05-10T04:48:47;4.50;;;2.33;;
18649;SDS011;9454;53.516;10.478;2023-05-10T04:51:50;3.95;;;2.40;;
18649;SDS011;9454;53.516;10.478;2023-05-10T04:55:00;4.40;;;2.22;;
18649;SDS011;9454;53.516;10.478;2023-05-10T04:58:04;4.18;;;2.25;;
18649;SDS011;9454;53.516;10.478;2023-05-10T05:01:07;5.50;;;2.60;;
18649;SDS011;9454;53.516;10.478;2023-05-10T05:04:12;3.67;;;2.42;;
18649;SDS011;9454;53.516;10.478;2023-05-10T05:07:15;3.40;;;1.95;;
18649;SDS011;9454;53.516;10.478;2023-05-10T05:10:20;4.18;;;2.25;;
18649;SDS011;9454;53.516;10.478;2023-05-10T05:13:25;3.88;;;2.28;;
18649;SDS011;9454;53.516;10.478;2023-05-10T05:16:30;5.05;;;2.83;;
18649;SDS011;9454;53.516;10.478;2023-05-10T05:19:34;6.40;;;2.63;;
18649;SDS011;9454;53.516;10.478;2023-05-10T05:22:39;4.72;;;2.45;;
18649;SDS011;9454;53.516;10.478;2023-05-10T05:25:47;4.47;;;2.75;;
18649;SDS011;9454;53.516;10.478;2023-05-10T05:28:54;6.35;;;2.13;;
18649;SDS011;9454;53.516;10.478;2023-05-10T05:31:59;5.18;;;2.95;;
18649;SDS011;9454;53.516;10.478;2023-05-10T05:35:03;5.50;;;2.95;;
18649;SDS011;9454;53.516;10.478;2023-05-10T05:38:16;4.70;;;2.60;;
18649;SDS011;9454;53.516;10.478;2023-05-10T05:41:42;3.78;;;2.42;;
18649;SDS011;9454;53.516;10.478;2023-05-10T05:44:48;3.58;;;2.60;;
18649;SDS011;9454;53.516;10.478;2023-05-10T05:47:52;5.88;;;2.60;;
18649;SDS011;9454;53.516;10.478;2023-05-10T05:50:59;6.68;;;3.17;;
18649;SDS011;9454;53.516;10.478;2023-05-10T05:54:04;6.95;;;2.55;;
18649;SDS011;9454;53.516;10.478;2023-05-10T05:57:09;3.47;;;2.08;;
18649;SDS011;9454;53.516;10.478;2023-05-10T06:00:13;3.92;;;2.47;;
18649;SDS011;9454;53.516;10.478;2023-05-10T06:03:19;4.93;;;2.55;;
18649;SDS011;9454;53.516;10.478;2023-05-10T06:06:24;10.65;;;2.70;;
18649;SDS011;9454;53.516;10.478;2023-05-10T06:09:28;8.43;;;2.50;;
18649;SDS011;9454;53.516;10.478;2023-05-10T06:12:36;4.45;;;2.60;;
18649;SDS011;9454;53.516;10.478;2023-05-10T06:15:39;9.52;;;3.05;;
18649;SDS011;9454;53.516;10.478;2023-05-10T06:18:43;5.55;;;2.30;;
18649;SDS011;9454;53.516;10.478;2023-05-10T06:21:47;7.55;;;2.80;;
18649;SDS011;9454;53.516;10.478;2023-05-10T06:24:56;9.55;;;2.85;;
18649;SDS011;9454;53.516;10.478;2023-05-10T06:28:01;3.72;;;2.58;;
18649;SDS011;9454;53.516;10.478;2023-05-10T06:31:05;3.15;;;2.33;;
18649;SDS011;9454;53.516;10.478;2023-05-10T06:34:09;4.68;;;2.65;;
18649;SDS011;9454;53.516;10.478;2023-05-10T06:37:13;3.97;;;2.50;;
18649;SDS011;9454;53.516;10.478;2023-05-10T06:40:17;8.55;;;2.47;;
18649;SDS011;9454;53.516;10.478;2023-05-10T06:43:25;12.30;;;2.85;;
18649;SDS011;9454;53.516;10.478;2023-05-10T06:46:32;12.25;;;3.60;;
18649;SDS011;9454;53.516;10.478;2023-05-10T06:49:37;9.02;;;2.20;;
18649;SDS011;9454;53.516;10.478;2023-05-10T06:52:41;8.13;;;2.88;;
18649;SDS011;9454;53.516;10.478;2023-05-10T06:55:45;2.92;;;2.30;;
18649;SDS011;9454;53.516;10.478;2023-05-10T06:58:50;5.63;;;2.33;;
18649;SDS011;9454;53.516;10.478;2023-05-10T07:01:56;4.30;;;2.50;;
18649;SDS011;9454;53.516;10.478;2023-05-10T07:05:00;2.88;;;2.13;;
18649;SDS011;9454;53.516;10.478;2023-05-10T07:08:04;5.80;;;2.83;;
18649;SDS011;9454;53.516;10.478;2023-05-10T07:11:08;4.53;;;2.50;;
18649;SDS011;9454;53.516;10.478;2023-05-10T07:14:15;4.07;;;2.33;;
18649;SDS011;9454;53.516;10.478;2023-05-10T07:17:18;3.63;;;2.30;;
18649;SDS011;9454;53.516;10.478;2023-05-10T07:20:22;4.55;;;2.40;;
18649;SDS011;9454;53.516;10.478;2023-05-10T07:23:27;5.15;;;2.63;;
18649;SDS011;9454;53.516;10.478;2023-05-10T07:26:39;3.58;;;2.40;;
18649;SDS011;9454;53.516;10.478;2023-05-10T07:29:45;4.15;;;2.63;;
18649;SDS011;9454;53.516;10.478;2023-05-10T07:32:50;5.05;;;2.58;;
18649;SDS011;9454;53.516;10.478;2023-05-10T07:35:53;3.47;;;2.53;;
18649;SDS011;9454;53.516;10.478;2023-05-10T07:38:58;3.80;;;2.00;;
18649;SDS011;9454;53.516;10.478;2023-05-10T07:42:04;4.85;;;2.80;;
18649;SDS011;9454;53.516;10.478;2023-05-10T07:45:11;3.45;;;2.42;;
18649;SDS011;9454;53.516;10.478;2023-05-10T07:48:16;4.50;;;2.70;;
18649;SDS011;9454;53.516;10.478;2023-05-10T07:51:22;5.63;;;2.53;;
18649;SDS011;9454;53.516;10.478;2023-05-10T07:54:25;5.18;;;2.55;;
18649;SDS011;9454;53.516;10.478;2023-05-10T07:57:35;4.45;;;2.17;;
18649;SDS011;9454;53.516;10.478;2023-05-10T08:00:42;4.07;;;3.03;;
18649;SDS011;9454;53.516;10.478;2023-05-10T08:03:46;4.45;;;2.30;;
18649;SDS011;9454;53.516;10.478;2023-05-10T08:06:50;4.88;;;2.63;;
18649;SDS011;9454;53.516;10.478;2023-05-10T08:09:55;3.83;;;2.35;;
18649;SDS011;9454;53.516;10.478;2023-05-10T08:13:05;3.70;;;2.38;;
18649;SDS011;9454;53.516;10.478;2023-05-10T08:16:10;3.28;;;1.95;;
18649;SDS011;9454;53.516;10.478;2023-05-10T08:19:16;3.92;;;2.55;;
18649;SDS011;9454;53.516;10.478;2023-05-10T08:22:22;3.90;;;2.53;;
18649;SDS011;9454;53.516;10.478;2023-05-10T08:25:32;7.53;;;3.45;;
18649;SDS011;9454;53.516;10.478;2023-05-10T08:28:36;2.78;;;2.08;;
18649;SDS011;9454;53.516;10.478;2023-05-10T08:31:41;4.22;;;2.20;;
18649;SDS011;9454;53.516;10.478;2023-05-10T08:34:45;4.20;;;2.35;;
18649;SDS011;9454;53.516;10.478;2023-05-10T08:37:50;4.50;;;2.65;;
18649;SDS011;9454;53.516;10.478;2023-05-10T08:40:54;8.55;;;2.13;;
18649;SDS011;9454;53.516;10.478;2023-05-10T08:44:00;5.18;;;1.98;;
18649;SDS011;9454;53.516;10.478;2023-05-10T08:47:07;9.52;;;2.53;;
18649;SDS011;9454;53.516;10.478;2023-05-10T08:50:14;3.25;;;2.28;;
18649;SDS011;9454;53.516;10.478;2023-05-10T08:53:19;6.63;;;2.40;;
18649;SDS011;9454;53.516;10.478;2023-05-10T08:56:24;2.63;;;2.17;;
18649;SDS011;9454;53.516;10.478;2023-05-10T08:59:28;4.63;;;1.98;;
18649;SDS011;9454;53.516;10.478;2023-05-10T09:02:38;2.97;;;2.13;;
18649;SDS011;9454;53.516;10.478;2023-05-10T09:05:42;3.83;;;2.00;;
18649;SDS011;9454;53.516;10.478;2023-05-10T09:08:49;4.22;;;2.78;;
18649;SDS011;9454;53.516;10.478;2023-05-10T09:11:56;3.63;;;2.25;;
18649;SDS011;9454;53.516;10.478;2023-05-10T09:15:01;4.82;;;2.00;;
18649;SDS011;9454;53.516;10.478;2023-05-10T09:18:06;3.72;;;2.22;;
18649;SDS011;9454;53.516;10.478;2023-05-10T09:21:16;8.95;;;2.22;;
18649;SDS011;9454;53.516;10.478;2023-05-10T09:24:19;2.83;;;2.03;;
18649;SDS011;9454;53.516;10.478;2023-05-10T09:27:32;3.35;;;2.08;;
18649;SDS011;9454;53.516;10.478;2023-05-10T09:30:36;4.80;;;2.40;;
18649;SDS011;9454;53.516;10.478;2023-05-10T09:33:44;3.08;;;2.08;;
18649;SDS011;9454;53.516;10.478;2023-05-10T09:36:54;2.97;;;1.83;;
18649;SDS011;9454;53.516;10.478;2023-05-10T09:39:59;6.90;;;2.78;;
18649;SDS011;9454;53.516;10.478;2023-05-10T09:43:06;3.28;;;2.08;;
18649;SDS011;9454;53.516;10.478;2023-05-10T09:46:10;3.60;;;2.20;;
18649;SDS011;9454;53.516;10.478;2023-05-10T09:49:24;6.50;;;2.20;;
18649;SDS011;9454;53.516;10.478;2023-05-10T09:52:27;5.72;;;2.03;;
18649;SDS011;9454;53.516;10.478;2023-05-10T09:55:39;2.67;;;2.13;;
18649;SDS011;9454;53.516;10.478;2023-05-10T09:58:45;4.70;;;2.30;;
18649;SDS011;9454;53.516;10.478;2023-05-10T10:01:50;2.08;;;1.83;;
18649;SDS011;9454;53.516;10.478;2023-05-10T10:04:55;3.55;;;2.13;;
18649;SDS011;9454;53.516;10.478;2023-05-10T10:08:03;2.97;;;2.13;;
18649;SDS011;9454;53.516;10.478;2023-05-10T10:11:07;7.78;;;2.83;;
18649;SDS011;9454;53.516;10.478;2023-05-10T10:14:15;6.10;;;2.15;;
18649;SDS011;9454;53.516;10.478;2023-05-10T10:17:19;2.47;;;1.85;;
18649;SDS011;9454;53.516;10.478;2023-05-10T10:20:26;3.55;;;2.35;;
18649;SDS011;9454;53.516;10.478;2023-05-10T10:23:30;3.90;;;2.08;;
18649;SDS011;9454;53.516;10.478;2023-05-10T10:26:34;2.90;;;2.17;;
18649;SDS011;9454;53.516;10.478;2023-05-10T10:29:41;4.22;;;2.20;;
18649;SDS011;9454;53.516;10.478;2023-05-10T10:33:01;6.28;;;1.92;;
18649;SDS011;9454;53.516;10.478;2023-05-10T10:36:29;5.70;;;2.20;;
18649;SDS011;9454;53.516;10.478;2023-05-10T10:39:41;3.47;;;2.17;;
18649;SDS011;9454;53.516;10.478;2023-05-10T10:42:48;5.38;;;2.58;;
18649;SDS011;9454;53.516;10.478;2023-05-10T10:46:09;3.03;;;2.20;;
18649;SDS011;9454;53.516;10.478;2023-05-10T10:49:16;5.13;;;2.47;;
18649;SDS011;9454;53.516;10.478;2023-05-10T10:52:23;3.78;;;2.03;;
18649;SDS011;9454;53.516;10.478;2023-05-10T10:55:29;4.43;;;2.67;;
18649;SDS011;9454;53.516;10.478;2023-05-10T10:58:38;4.95;;;2.70;;
18649;SDS011;9454;53.516;10.478;2023-05-10T11:01:44;5.85;;;3.30;;
18649;SDS011;9454;53.516;10.478;2023-05-10T11:04:48;7.60;;;2.53;;
18649;SDS011;9454;53.516;10.478;2023-05-10T11:07:54;4.70;;;2.70;;
18649;SDS011;9454;53.516;10.478;2023-05-10T11:11:05;5.07;;;2.92;;
18649;SDS011;9454;53.516;10.478;2023-05-10T11:14:09;4.60;;;2.83;;
18649;SDS011;9454;53.516;10.478;2023-05-10T11:17:23;6.25;;;2.60;;
18649;SDS011;9454;53.516;10.478;2023-05-10T11:20:27;6.75;;;2.88;;
18649;SDS011;9454;53.516;10.478;2023-05-10T11:23:59;3.70;;;2.60;;
18649;SDS011;9454;53.516;10.478;2023-05-10T11:27:07;10.13;;;2.85;;
18649;SDS011;9454;53.516;10.478;2023-05-10T11:30:12;5.65;;;2.38;;
18649;SDS011;9454;53.516;10.478;2023-05-10T11:33:17;4.60;;;3.08;;
18649;SDS011;9454;53.516;10.478;2023-05-10T11:36:23;3.92;;;2.80;;
18649;SDS011;9454;53.516;10.478;2023-05-10T11:39:31;5.18;;;3.42;;
18649;SDS011;9454;53.516;10.478;2023-05-10T11:42:39;4.50;;;2.90;;
18649;SDS011;9454;53.516;10.478;2023-05-10T11:45:43;6.00;;;3.08;;
18649;SDS011;9454;53.516;10.478;2023-05-10T11:48:57;8.77;;;3.13;;
18649;SDS011;9454;53.516;10.478;2023-05-10T11:52:35;5.35;;;3.10;;
18649;SDS011;9454;53.516;10.478;2023-05-10T11:55:41;3.58;;;2.42;;
18649;SDS011;9454;53.516;10.478;2023-05-10T11:58:44;8.25;;;3.28;;
18649;SDS011;9454;53.516;10.478;2023-05-10T12:01:50;4.10;;;2.70;;
18649;SDS011;9454;53.516;10.478;2023-05-10T12:04:57;3.88;;;3.05;;
18649;SDS011;9454;53.516;10.478;2023-05-10T12:08:12;5.93;;;3.50;;
18649;SDS011;9454;53.516;10.478;2023-05-10T12:11:17;5.50;;;2.80;;
18649;SDS011;9454;53.516;10.478;2023-05-10T12:14:24;3.90;;;2.78;;
18649;SDS011;9454;53.516;10.478;2023-05-10T12:17:27;3.88;;;3.08;;
18649;SDS011;9454;53.516;10.478;2023-05-10T12:20:32;4.35;;;2.95;;
18649;SDS011;9454;53.516;10.478;2023-05-10T12:23:37;5.90;;;3.33;;
18649;SDS011;9454;53.516;10.478;2023-05-10T12:26:43;8.02;;;3.75;;
18649;SDS011;9454;53.516;10.478;2023-05-10T12:29:49;6.22;;;2.90;;
18649;SDS011;9454;53.516;10.478;2023-05-10T12:32:58;3.58;;;2.75;;
18649;SDS011;9454;53.516;10.478;2023-05-10T12:36:02;4.95;;;3.00;;
18649;SDS011;9454;53.516;10.478;2023-05-10T12:39:06;4.40;;;3.28;;
18649;SDS011;9454;53.516;10.478;2023-05-10T12:42:11;4.30;;;2.47;;
18649;SDS011;9454;53.516;10.478;2023-05-10T12:45:15;3.38;;;2.50;;
18649;SDS011;9454;53.516;10.478;2023-05-10T12:48:20;3.42;;;2.28;;
18649;SDS011;9454;53.516;10.478;2023-05-10T12:51:24;3.25;;;2.30;;
18649;SDS011;9454;53.516;10.478;2023-05-10T12:54:28;4.82;;;2.97;;
18649;SDS011;9454;53.516;10.478;2023-05-10T12:57:34;3.70;;;2.60;;
18649;SDS011;9454;53.516;10.478;2023-05-10T13:00:39;3.13;;;2.40;;
18649;SDS011;9454;53.516;10.478;2023-05-10T13:03:43;3.80;;;2.70;;
18649;SDS011;9454;53.516;10.478;2023-05-10T13:06:46;4.88;;;2.95;;
18649;SDS011;9454;53.516;10.478;2023-05-10T13:09:57;4.25;;;2.63;;
18649;SDS011;9454;53.516;10.478;2023-05-10T13:13:03;3.95;;;2.85;;
18649;SDS011;9454;53.516;10.478;2023-05-10T13:16:09;3.38;;;2.42;;
18649;SDS011;9454;53.516;10.478;2023-05-10T13:19:13;5.40;;;2.80;;
18649;SDS011;9454;53.516;10.478;2023-05-10T13:22:19;4.63;;;2.70;;
18649;SDS011;9454;53.516;10.478;2023-05-10T13:25:40;4.07;;;2.85;;
18649;SDS011;9454;53.516;10.478;2023-05-10T13:28:45;7.00;;;3.10;;
18649;SDS011;9454;53.516;10.478;2023-05-10T13:31:51;3.15;;;2.53;;
18649;SDS011;9454;53.516;10.478;2023-05-10T13:34:54;3.70;;;2.90;;
18649;SDS011;9454;53.516;10.478;2023-05-10T13:38:02;4.38;;;2.97;;
18649;SDS011;9454;53.516;10.478;2023-05-10T13:41:09;5.35;;;3.30;;
18649;SDS011;9454;53.516;10.478;2023-05-10T13:44:14;4.18;;;2.67;;
18649;SDS011;9454;53.516;10.478;2023-05-10T13:47:18;5.78;;;2.92;;
18649;SDS011;9454;53.516;10.478;2023-05-10T13:50:23;3.75;;;2.75;;
18649;SDS011;9454;53.516;10.478;2023-05-10T13:53:27;4.85;;;2.38;;
18649;SDS011;9454;53.516;10.478;2023-05-10T13:56:32;5.05;;;2.33;;
18649;SDS011;9454;53.516;10.478;2023-05-10T13:59:37;2.30;;;1.63;;
18649;SDS011;9454;53.516;10.478;2023-05-10T14:02:42;2.75;;;2.22;;
18649;SDS011;9454;53.516;10.478;2023-05-10T14:05:45;2.05;;;1.63;;
18649;SDS011;9454;53.516;10.478;2023-05-10T14:08:49;3.42;;;2.28;;
18649;SDS011;9454;53.516;10.478;2023-05-10T14:11:53;2.83;;;2.35;;
18649;SDS011;9454;53.516;10.478;2023-05-10T14:14:58;3.72;;;2.28;;
18649;SDS011;9454;53.516;10.478;2023-05-10T14:18:06;2.00;;;1.80;;
18649;SDS011;9454;53.516;10.478;2023-05-10T14:21:09;2.67;;;1.90;;
18649;SDS011;9454;53.516;10.478;2023-05-10T14:24:13;3.35;;;1.58;;
18649;SDS011;9454;53.516;10.478;2023-05-10T14:27:17;2.55;;;1.50;;
18649;SDS011;9454;53.516;10.478;2023-05-10T14:30:22;2.45;;;1.70;;
18649;SDS011;9454;53.516;10.478;2023-05-10T14:33:27;2.90;;;1.92;;
18649;SDS011;9454;53.516;10.478;2023-05-10T14:36:36;1.90;;;1.63;;
18649;SDS011;9454;53.516;10.478;2023-05-10T14:39:40;2.17;;;1.83;;
18649;SDS011;9454;53.516;10.478;2023-05-10T14:42:45;2.28;;;1.75;;
18649;SDS011;9454;53.516;10.478;2023-05-10T14:45:51;2.13;;;1.65;;
18649;SDS011;9454;53.516;10.478;2023-05-10T14:48:55;3.22;;;1.92;;
18649;SDS011;9454;53.516;10.478;2023-05-10T14:51:58;1.40;;;1.27;;
18649;SDS011;9454;53.516;10.478;2023-05-10T14:55:03;1.98;;;1.52;;
18649;SDS011;9454;53.516;10.478;2023-05-10T14:58:07;1.83;;;1.40;;
18649;SDS011;9454;53.516;10.478;2023-05-10T15:01:15;3.10;;;1.40;;
18649;SDS011;9454;53.516;10.478;2023-05-10T15:04:21;1.77;;;1.40;;
18649;SDS011;9454;53.516;10.478;2023-05-10T15:07:30;3.63;;;1.60;;
18649;SDS011;9454;53.516;10.478;2023-05-10T15:10:40;1.58;;;1.30;;
18649;SDS011;9454;53.516;10.478;2023-05-10T15:13:47;1.83;;;1.33;;
18649;SDS011;9454;53.516;10.478;2023-05-10T15:16:52;1.90;;;1.60;;
18649;SDS011;9454;53.516;10.478;2023-05-10T15:19:56;1.40;;;1.30;;
18649;SDS011;9454;53.516;10.478;2023-05-10T15:23:02;8.05;;;1.67;;
18649;SDS011;9454;53.516;10.478;2023-05-10T15:26:10;1.50;;;1.33;;
18649;SDS011;9454;53.516;10.478;2023-05-10T15:29:14;2.90;;;1.40;;
18649;SDS011;9454;53.516;10.478;2023-05-10T15:32:24;2.30;;;1.42;;
18649;SDS011;9454;53.516;10.478;2023-05-10T15:35:28;2.13;;;1.38;;
18649;SDS011;9454;53.516;10.478;2023-05-10T15:38:32;3.25;;;1.70;;
18649;SDS011;9454;53.516;10.478;2023-05-10T15:41:38;2.65;;;1.50;;
18649;SDS011;9454;53.516;10.478;2023-05-10T15:44:43;4.18;;;1.83;;
18649;SDS011;9454;53.516;10.478;2023-05-10T15:47:52;2.40;;;1.50;;
18649;SDS011;9454;53.516;10.478;2023-05-10T15:51:01;2.80;;;1.58;;
18649;SDS011;9454;53.516;10.478;2023-05-10T15:54:05;3.55;;;1.85;;
18649;SDS011;9454;53.516;10.478;2023-05-10T15:57:10;2.88;;;1.52;;
18649;SDS011;9454;53.516;10.478;2023-05-10T16:00:16;2.15;;;1.73;;
18649;SDS011;9454;53.516;10.478;2023-05-10T16:03:26;3.22;;;1.88;;
18649;SDS011;9454;53.516;10.478;2023-05-10T16:06:31;5.68;;;1.92;;
18649;SDS011;9454;53.516;10.478;2023-05-10T16:09:37;3.83;;;1.90;;
18649;SDS011;9454;53.516;10.478;2023-05-10T16:12:54;2.58;;;1.65;;
18649;SDS011;9454;53.516;10.478;2023-05-10T16:15:58;2.63;;;1.38;;
18649;SDS011;9454;53.516;10.478;2023-05-10T16:19:10;3.60;;;2.03;;
18649;SDS011;9454;53.516;10.478;2023-05-10T16:22:21;4.55;;;2.20;;
18649;SDS011;9454;53.516;10.478;2023-05-10T16:25:27;3.50;;;2.38;;
18649;SDS011;9454;53.516;10.478;2023-05-10T16:28:31;3.83;;;2.20;;
18649;SDS011;9454;53.516;10.478;2023-05-10T16:31:35;3.33;;;2.17;;
18649;SDS011;9454;53.516;10.478;2023-05-10T16:34:52;3.10;;;2.05;;
18649;SDS011;9454;53.516;10.478;2023-05-10T16:38:09;2.65;;;1.70;;
18649;SDS011;9454;53.516;10.478;2023-05-10T16:41:14;4.05;;;2.00;;
18649;SDS011;9454;53.516;10.478;2023-05-10T16:44:18;4.13;;;2.55;;
18649;SDS011;9454;53.516;10.478;2023-05-10T16:47:26;3.40;;;2.35;;
18649;SDS011;9454;53.516;10.478;2023-05-10T16:50:36;3.03;;;1.80;;
18649;SDS011;9454;53.516;10.478;2023-05-10T16:53:54;2.72;;;1.55;;
18649;SDS011;9454;53.516;10.478;2023-05-10T16:56:58;1.88;;;1.63;;
18649;SDS011;9454;53.516;10.478;2023-05-10T17:00:02;2.72;;;1.58;;
18649;SDS011;9454;53.516;10.478;2023-05-10T17:03:06;4.88;;;1.90;;
18649;SDS011;9454;53.516;10.478;2023-05-10T17:06:13;2.83;;;1.73;;
18649;SDS011;9454;53.516;10.478;2023-05-10T17:09:35;5.45;;;2.00;;
18649;SDS011;9454;53.516;10.478;2023-05-10T17:12:46;2.75;;;1.67;;
18649;SDS011;9454;53.516;10.478;2023-05-10T17:15:51;5.00;;;1.73;;
18649;SDS011;9454;53.516;10.478;2023-05-10T17:18:56;2.88;;;1.75;;
18649;SDS011;9454;53.516;10.478;2023-05-10T17:22:08;1.95;;;1.38;;
18649;SDS011;9454;53.516;10.478;2023-05-10T17:28:47;3.00;;;1.67;;
18649;SDS011;9454;53.516;10.478;2023-05-10T17:31:52;1.80;;;1.30;;
18649;SDS011;9454;53.516;10.478;2023-05-10T17:34:56;1.35;;;1.25;;
18649;SDS011;9454;53.516;10.478;2023-05-10T17:38:07;2.63;;;1.42;;
18649;SDS011;9454;53.516;10.478;2023-05-10T17:41:12;1.85;;;1.30;;
18649;SDS011;9454;53.516;10.478;2023-05-10T17:44:18;1.80;;;1.42;;
18649;SDS011;9454;53.516;10.478;2023-05-10T17:47:22;1.52;;;1.15;;
18649;SDS011;9454;53.516;10.478;2023-05-10T17:50:29;2.97;;;1.20;;
18649;SDS011;9454;53.516;10.478;2023-05-10T17:53:35;1.42;;;1.17;;
18649;SDS011;9454;53.516;10.478;2023-05-10T17:56:39;3.00;;;1.20;;
18649;SDS011;9454;53.516;10.478;2023-05-10T17:59:42;4.35;;;1.20;;
18649;SDS011;9454;53.516;10.478;2023-05-10T18:02:49;2.10;;;1.38;;
18649;SDS011;9454;53.516;10.478;2023-05-10T18:05:54;1.85;;;1.23;;
18649;SDS011;9454;53.516;10.478;2023-05-10T18:08:59;2.60;;;1.20;;
18649;SDS011;9454;53.516;10.478;2023-05-10T18:12:03;2.67;;;1.23;;
18649;SDS011;9454;53.516;10.478;2023-05-10T18:15:11;2.50;;;1.20;;
18649;SDS011;9454;53.516;10.478;2023-05-10T18:18:17;1.95;;;1.38;;
18649;SDS011;9454;53.516;10.478;2023-05-10T18:21:24;2.00;;;1.40;;
18649;SDS011;9454;53.516;10.478;2023-05-10T18:24:30;1.30;;;1.08;;
18649;SDS011;9454;53.516;10.478;2023-05-10T18:27:42;1.35;;;1.10;;
18649;SDS011;9454;53.516;10.478;2023-05-10T18:30:46;1.33;;;1.20;;
18649;SDS011;9454;53.516;10.478;2023-05-10T18:33:50;1.40;;;1.17;;
18649;SDS011;9454;53.516;10.478;2023-05-10T18:36:57;2.03;;;1.30;;
18649;SDS011;9454;53.516;10.478;2023-05-10T18:40:04;1.80;;;1.20;;
18649;SDS011;9454;53.516;10.478;2023-05-10T18:43:14;0.98;;;0.88;;
18649;SDS011;9454;53.516;10.478;2023-05-10T19:11:47;2.08;;;1.20;;
18649;SDS011;9454;53.516;10.478;2023-05-10T19:14:51;1.40;;;1.17;;
18649;SDS011;9454;53.516;10.478;2023-05-10T19:17:54;3.60;;;1.42;;
18649;SDS011;9454;53.516;10.478;2023-05-10T19:20:59;1.35;;;1.00;;